Time;durP1;ratioP1;P1;durP2;ratioP2;P2;SDS_P1;SDS_P2;PMS_P1;PMS_P2;Temp;Humidity;BMP_temperature;BMP_pressure;BME280_temperature;BME280_humidity;BME280_pressure;Samples;Min_cycle;Max_cycle;Signal;HPM_P1;HPM_P2
2023/10/04 00:01:06;;;;;;;7.07;1.42;;;;;;;;;;5025507;28;20139;-67
2023/10/04 00:03:32;;;;;;;7.93;1.73;;;;;;;;;;5044753;28;20870;-68
2023/10/04 00:05:59;;;;;;;9.90;1.83;;;;;;;;;;5026367;28;20053;-68
2023/10/04 00:08:25;;;;;;;9.20;2.25;;;;;;;;;;5026395;28;20090;-68
2023/10/04 00:10:51;;;;;;;9.30;2.00;;;;;;;;;;5010402;28;20215;-68
2023/10/04 00:13:17;;;;;;;5.93;1.20;;;;;;;;;;5018919;28;20045;-68
2023/10/04 00:15:44;;;;;;;7.75;2.10;;;;;;;;;;5044735;28;20045;-68
2023/10/04 00:18:10;;;;;;;6.85;1.70;;;;;;;;;;5044830;28;20064;-68
2023/10/04 00:20:36;;;;;;;5.97;1.30;;;;;;;;;;5014889;28;20478;-68
2023/10/04 00:23:06;;;;;;;10.80;1.70;;;;;;;;;;5026589;28;20094;-68
2023/10/04 00:25:33;;;;;;;11.93;1.50;;;;;;;;;;5024157;28;20532;-68
2023/10/04 00:27:59;;;;;;;12.52;2.30;;;;;;;;;;5041502;28;20041;-68
2023/10/04 00:30:27;;;;;;;10.25;2.05;;;13.20;99.90;;;;;;5020950;28;20045;-68
2023/10/04 00:32:54;;;;;;;8.05;2.17;;;;;;;;;;5029897;28;20049;-68
2023/10/04 00:35:21;;;;;;;9.02;1.80;;;12.90;99.90;;;;;;5025589;28;20085;-68
2023/10/04 00:37:55;;;;;;;11.90;1.70;;;13.30;99.90;;;;;;5047414;28;20045;-68
2023/10/04 00:40:23;;;;;;;10.37;3.30;;;;;;;;;;5028872;28;20139;-68
2023/10/04 00:42:51;;;;;;;7.35;1.60;;;12.90;99.90;;;;;;5046444;28;20052;-68
2023/10/04 00:45:17;;;;;;;15.95;1.67;;;13.20;99.90;;;;;;5032879;28;20055;-68
2023/10/04 00:47:47;;;;;;;10.00;1.85;;;;;;;;;;5047795;28;20575;-68
2023/10/04 00:50:18;;;;;;;7.90;1.50;;;;;;;;;;5049204;28;20045;-68
2023/10/04 00:52:59;;;;;;;7.35;1.88;;;13.10;99.90;;;;;;5031523;28;20040;-68
2023/10/04 00:55:26;;;;;;;11.00;1.88;;;;;;;;;;5066185;28;20551;-68
2023/10/04 00:57:56;;;;;;;8.18;1.75;;;;;;;;;;5042860;28;20059;-68
2023/10/04 01:00:22;;;;;;;17.33;2.30;;;;;;;;;;5049383;28;20082;-68
2023/10/04 01:02:48;;;;;;;11.90;1.50;;;;;;;;;;5059220;28;20045;-68
2023/10/04 01:05:16;;;;;;;12.60;1.67;;;13.20;99.90;;;;;;5047195;28;20048;-68
2023/10/04 01:07:42;;;;;;;6.95;1.38;;;;;;;;;;5046941;28;20044;-68
2023/10/04 01:10:16;;;;;;;8.02;1.60;;;13.30;99.90;;;;;;5065067;28;20040;-68
2023/10/04 01:12:45;;;;;;;9.35;2.00;;;;;;;;;;5041822;28;20407;-68
2023/10/04 01:15:30;;;;;;;8.00;1.55;;;13.10;99.90;;;;;;5048722;28;20051;-68
2023/10/04 01:18:11;;;;;;;9.63;2.40;;;13.00;99.90;;;;;;5048021;28;20049;-68
2023/10/04 01:20:38;;;;;;;15.85;2.33;;;;;;;;;;5047733;28;20135;-68
2023/10/04 01:23:10;;;;;;;12.48;1.90;;;;;;;;;;5064736;28;20056;-68
2023/10/04 01:25:41;;;;;;;12.68;1.80;;;;;;;;;;5048278;28;20059;-68
2023/10/04 01:28:18;;;;;;;7.35;1.55;;;;;;;;;;5077788;23;20057;-91
2023/10/04 01:30:45;;;;;;;7.72;1.77;;;;;;;;;;5022004;28;20052;-90
2023/10/04 01:33:21;;;;;;;9.32;1.67;;;;;;;;;;5025159;28;20093;-89
2023/10/04 01:35:53;;;;;;;8.98;1.90;;;;;;;;;;5047500;28;20041;-91
2023/10/04 01:38:24;;;;;;;9.77;1.73;;;;;;;;;;5028901;28;20039;-91
2023/10/04 01:40:50;;;;;;;11.32;2.33;;;;;;;;;;5025908;28;20469;-89
2023/10/04 01:43:17;;;;;;;8.60;1.73;;;;;;;;;;5019335;28;20511;-91
2023/10/04 01:45:57;;;;;;;11.52;3.50;;;13.30;99.90;;;;;;5031787;28;20477;-89
2023/10/04 01:48:24;;;;;;;8.63;1.98;;;;;;;;;;5024898;28;20037;-90
2023/10/04 01:50:53;;;;;;;11.73;1.83;;;;;;;;;;5022951;28;20041;-90
2023/10/04 01:53:26;;;;;;;8.10;1.83;;;13.40;99.90;;;;;;5024865;28;20044;-90
2023/10/04 01:55:54;;;;;;;11.10;2.10;;;;;;;;;;5040564;28;20029;-90
2023/10/04 01:58:23;;;;;;;10.60;2.15;;;;;;;;;;5029811;28;20040;-91
2023/10/04 02:00:53;;;;;;;13.23;2.08;;;13.20;99.90;;;;;;5023936;28;20127;-89
2023/10/04 02:03:20;;;;;;;7.38;2.05;;;;;;;;;;5024193;28;20089;-90
2023/10/04 02:05:50;;;;;;;9.98;1.85;;;13.30;99.90;;;;;;5031108;28;20144;-91
2023/10/04 02:08:17;;;;;;;10.05;1.95;;;;;;;;;;5016553;28;20568;-90
2023/10/04 02:10:44;;;;;;;10.32;2.20;;;;;;;;;;5017458;28;20094;-90
2023/10/04 02:13:15;;;;;;;11.25;2.08;;;;;;;;;;5015490;28;20519;-90
2023/10/04 02:16:02;;;;;;;8.18;1.55;;;;;;;;;;5021951;28;20500;-90
2023/10/04 02:18:27;;;;;;;8.45;1.88;;;;;;;;;;5038813;28;20044;-91
2023/10/04 02:20:53;;;;;;;8.10;1.73;;;;;;;;;;5041387;28;20116;-90
2023/10/04 02:23:19;;;;;;;7.72;2.05;;;;;;;;;;5019833;28;20040;-90
2023/10/04 02:25:46;;;;;;;12.15;2.53;;;;;;;;;;5022379;28;20613;-90
2023/10/04 02:28:18;;;;;;;7.63;1.63;;;;;;;;;;5030281;28;20135;-89
2023/10/04 02:30:47;;;;;;;7.15;1.70;;;;;;;;;;5026255;28;20048;-89
2023/10/04 02:33:14;;;;;;;10.98;2.40;;;13.60;99.90;;;;;;5030002;28;20063;-90
2023/10/04 02:35:44;;;;;;;12.63;2.15;;;13.30;99.90;;;;;;5015881;28;20037;-90
2023/10/04 02:38:19;;;;;;;9.35;2.47;;;;;;;;;;5037565;28;20127;-90
2023/10/04 02:40:45;;;;;;;11.73;2.00;;;;;;;;;;5022651;28;20033;-90
2023/10/04 02:43:11;;;;;;;9.65;2.10;;;;;;;;;;5022829;28;20045;-90
2023/10/04 02:45:37;;;;;;;13.38;2.33;;;;;;;;;;5018311;28;20500;-89
2023/10/04 02:48:09;;;;;;;10.65;2.15;;;;;;;;;;5030242;28;20044;-89
2023/10/04 02:50:37;;;;;;;9.73;2.10;;;;;;;;;;5026989;28;20040;-90
2023/10/04 02:53:03;;;;;;;10.18;2.25;;;;;;;;;;5028961;28;20032;-90
2023/10/04 02:55:31;;;;;;;9.25;1.92;;;;;;;;;;5023223;28;20068;-90
2023/10/04 02:57:59;;;;;;;13.50;2.65;;;;;;;;;;5035045;28;20045;-90
2023/10/04 03:00:25;;;;;;;10.40;2.28;;;;;;;;;;5021216;28;20048;-90
2023/10/04 03:02:53;;;;;;;12.40;1.90;;;;;;;;;;5019525;28;20040;-91
2023/10/04 03:05:19;;;;;;;7.60;2.35;;;;;;;;;;5022709;28;20051;-90
2023/10/04 03:07:52;;;;;;;7.93;1.70;;;;;;;;;;5018532;28;20105;-90
2023/10/04 03:10:25;;;;;;;13.40;2.03;;;;;;;;;;5037162;28;20041;-90
2023/10/04 03:13:00;;;;;;;7.88;2.10;;;12.90;99.90;;;;;;5027564;28;20042;-90
2023/10/04 03:15:27;;;;;;;8.18;2.00;;;;;;;;;;5014976;28;20044;-90
2023/10/04 03:17:55;;;;;;;13.23;2.78;;;13.00;99.90;;;;;;5060092;28;20060;-90
2023/10/04 03:20:23;;;;;;;8.90;2.25;;;;;;;;;;5022219;28;20511;-90
2023/10/04 03:22:50;;;;;;;7.35;2.20;;;;;;;;;;5016794;28;20041;-90
2023/10/04 03:25:16;;;;;;;7.13;2.17;;;;;;;;;;5019188;28;20064;-89
2023/10/04 03:27:46;;;;;;;8.95;2.35;;;;;;;;;;5030215;28;20114;-90
2023/10/04 03:30:16;;;;;;;7.95;1.80;;;;;;;;;;5009911;28;20041;-90
2023/10/04 03:32:44;;;;;;;9.23;1.73;;;;;;;;;;5008430;28;20048;-91
2023/10/04 03:35:14;;;;;;;10.88;2.05;;;;;;;;;;5020254;28;20098;-91
2023/10/04 03:37:48;;;;;;;7.72;2.28;;;;;;;;;;5021780;28;20175;-90
2023/10/04 03:40:15;;;;;;;7.10;1.65;;;;;;;;;;5020911;28;20045;-90
2023/10/04 03:42:45;;;;;;;10.05;2.20;;;12.90;99.90;;;;;;5021315;28;20529;-90
2023/10/04 03:45:11;;;;;;;8.80;1.92;;;;;;;;;;5020069;28;20106;-91
2023/10/04 03:47:39;;;;;;;6.20;1.75;;;;;;;;;;5040614;28;20045;-91
2023/10/04 03:50:09;;;;;;;10.18;1.60;;;;;;;;;;5010866;28;20132;-91
2023/10/04 03:52:35;;;;;;;10.93;1.80;;;;;;;;;;5012653;28;20055;-89
2023/10/04 03:55:02;;;;;;;9.98;2.38;;;;;;;;;;5015626;28;20416;-90
2023/10/04 03:57:28;;;;;;;8.32;1.80;;;;;;;;;;5021486;28;20040;-90
2023/10/04 03:59:57;;;;;;;9.45;2.20;;;;;;;;;;5004693;28;20046;-90
2023/10/04 04:02:23;;;;;;;10.90;2.35;;;;;;;;;;5023413;28;20041;-91
2023/10/04 04:04:49;;;;;;;10.50;2.17;;;;;;;;;;5021226;28;20041;-90
2023/10/04 04:07:15;;;;;;;10.82;2.25;;;;;;;;;;5012990;28;20046;-90
2023/10/04 04:09:41;;;;;;;6.18;1.95;;;;;;;;;;5016680;28;20040;-90
2023/10/04 04:12:07;;;;;;;7.70;2.00;;;;;;;;;;5038783;28;20045;-90
2023/10/04 04:14:33;;;;;;;8.45;2.17;;;;;;;;;;5019697;28;20064;-91
2023/10/04 04:16:59;;;;;;;11.93;2.40;;;;;;;;;;5035816;28;20130;-89
2023/10/04 04:19:26;;;;;;;11.15;2.10;;;;;;;;;;5022366;28;20076;-90
2023/10/04 04:21:56;;;;;;;9.45;2.30;;;;;;;;;;5021369;28;20045;-90
2023/10/04 04:24:22;;;;;;;10.30;3.45;;;;;;;;;;5011930;28;20443;-91
2023/10/04 04:26:48;;;;;;;7.45;2.47;;;;;;;;;;5019960;28;20045;-91
2023/10/04 04:29:14;;;;;;;13.48;2.90;;;;;;;;;;5037460;28;20056;-90
2023/10/04 04:31:40;;;;;;;7.93;2.40;;;;;;;;;;5036411;28;20056;-89
2023/10/04 04:34:13;;;;;;;14.30;2.47;;;;;;;;;;5022257;28;20556;-89
2023/10/04 04:36:39;;;;;;;14.10;3.00;;;;;;;;;;5012848;28;20044;-90
2023/10/04 04:39:05;;;;;;;11.65;2.15;;;;;;;;;;5024208;28;20601;-90
2023/10/04 04:41:33;;;;;;;11.18;2.20;;;;;;;;;;5040274;28;20489;-90
2023/10/04 04:44:07;;;;;;;6.50;2.20;;;;;;;;;;5012648;28;20044;-90
2023/10/04 04:46:34;;;;;;;11.07;2.28;;;;;;;;;;5023736;28;20048;-91
2023/10/04 04:49:00;;;;;;;8.15;2.20;;;;;;;;;;5020076;28;20079;-91
2023/10/04 04:51:27;;;;;;;9.80;1.92;;;;;;;;;;5014105;28;20501;-90
2023/10/04 04:53:53;;;;;;;12.13;2.63;;;;;;;;;;5025089;28;20032;-91
2023/10/04 04:56:21;;;;;;;6.40;2.00;;;;;;;;;;5019355;28;20118;-88
2023/10/04 04:58:48;;;;;;;8.68;2.72;;;;;;;;;;5044862;28;20076;-91
2023/10/04 05:01:17;;;;;;;9.70;2.55;;;;;;;;;;5012368;28;20037;-90
2023/10/04 05:03:46;;;;;;;11.95;2.17;;;13.20;99.90;;;;;;5011559;28;20106;-90
2023/10/04 05:06:21;;;;;;;7.38;2.08;;;;;;;;;;5020373;28;20075;-89
2023/10/04 05:08:47;;;;;;;11.48;2.33;;;;;;;;;;5003909;28;20044;-90
2023/10/04 05:11:14;;;;;;;7.47;2.55;;;;;;;;;;5023924;28;20040;-90
2023/10/04 05:13:40;;;;;;;9.05;2.30;;;;;;;;;;5011496;28;20041;-91
2023/10/04 05:16:06;;;;;;;10.65;2.80;;;;;;;;;;5022439;28;20068;-90
2023/10/04 05:18:32;;;;;;;13.43;3.17;;;;;;;;;;5022011;28;20079;-89
2023/10/04 05:21:00;;;;;;;10.18;2.45;;;;;;;;;;5025273;28;20562;-90
2023/10/04 05:23:28;;;;;;;10.70;3.22;;;12.80;99.90;;;;;;5018918;28;20463;-90
2023/10/04 05:25:54;;;;;;;7.43;2.20;;;;;;;;;;5025712;28;20407;-91
2023/10/04 05:28:22;;;;;;;13.38;2.33;;;;;;;;;;5034171;28;20449;-90
2023/10/04 05:30:48;;;;;;;7.47;2.08;;;;;;;;;;5038871;28;20098;-91
2023/10/04 05:33:18;;;;;;;10.93;2.13;;;12.70;99.90;;;;;;5042309;28;20041;-90
2023/10/04 05:35:44;;;;;;;7.00;2.78;;;;;;;;;;5013853;28;20543;-91
2023/10/04 05:38:17;;;;;;;13.68;3.10;;;12.90;99.90;;;;;;5040408;28;20454;-90
2023/10/04 05:40:46;;;;;;;8.90;2.15;;;13.10;99.90;;;;;;5002913;28;20516;-89
2023/10/04 05:43:12;;;;;;;12.35;3.78;;;;;;;;;;5026047;28;20553;-88
2023/10/04 05:45:42;;;;;;;14.00;2.63;;;;;;;;;;5029734;28;20257;-90
2023/10/04 05:48:09;;;;;;;15.50;3.42;;;;;;;;;;5025033;28;20717;-89
2023/10/04 05:50:35;;;;;;;12.35;3.53;;;;;;;;;;5026613;28;20056;-90
2023/10/04 05:53:05;;;;;;;17.13;3.40;;;;;;;;;;5029583;28;20411;-90
2023/10/04 05:55:32;;;;;;;12.40;3.35;;;;;;;;;;5022932;28;20555;-90
2023/10/04 05:58:06;;;;;;;13.48;3.38;;;;;;;;;;5020158;28;20040;-88
2023/10/04 06:00:40;;;;;;;18.65;3.75;;;;;;;;;;5010058;28;20041;-89
2023/10/04 06:03:13;;;;;;;7.63;3.10;;;13.40;99.90;;;;;;5024220;28;20033;-89
2023/10/04 06:05:42;;;;;;;13.32;3.38;;;;;;;;;;5039268;28;20033;-90
2023/10/04 06:08:18;;;;;;;15.20;3.22;;;13.40;99.90;;;;;;5020366;28;20037;-88
2023/10/04 06:10:44;;;;;;;15.73;3.60;;;;;;;;;;5013413;28;20037;-91
2023/10/04 06:13:13;;;;;;;12.23;3.45;;;;;;;;;;5022356;28;20036;-91
2023/10/04 06:15:47;;;;;;;12.75;3.28;;;13.30;99.90;;;;;;5034014;28;20098;-90
2023/10/04 06:18:16;;;;;;;9.07;3.08;;;;;;;;;;5015839;28;20037;-89
2023/10/04 06:20:43;;;;;;;17.30;3.67;;;;;;;;;;5000658;28;20144;-90
2023/10/04 06:23:10;;;;;;;10.68;3.05;;;13.40;99.90;;;;;;5011626;28;20045;-91
2023/10/04 06:25:54;;;;;;;18.65;3.35;;;13.60;99.90;;;;;;5013623;28;20048;-91
2023/10/04 06:28:20;;;;;;;10.43;3.75;;;;;;;;;;5011783;28;20119;-90
2023/10/04 06:30:48;;;;;;;9.65;3.35;;;;;;;;;;5038098;28;20033;-90
2023/10/04 06:33:15;;;;;;;12.90;3.60;;;;;;;;;;5020985;28;20037;-89
2023/10/04 06:35:44;;;;;;;8.98;3.03;;;;;;;;;;5034952;28;20044;-91
2023/10/04 06:38:11;;;;;;;14.05;3.58;;;;;;;;;;5043277;28;20041;-92
2023/10/04 06:40:37;;;;;;;13.10;2.80;;;;;;;;;;5026629;28;20041;-91
2023/10/04 06:43:10;;;;;;;13.68;3.65;;;;;;;;;;5016633;28;20037;-90
2023/10/04 06:45:37;;;;;;;15.50;3.65;;;;;;;;;;5022087;28;20055;-90
2023/10/04 06:48:04;;;;;;;16.88;3.67;;;;;;;;;;5033181;28;20036;-90
2023/10/04 06:50:35;;;;;;;9.65;3.38;;;;;;;;;;5039034;28;20049;-90
2023/10/04 06:53:02;;;;;;;14.07;3.58;;;;;;;;;;5039229;28;20045;-89
2023/10/04 06:55:30;;;;;;;17.17;3.30;;;;;;;;;;5005885;28;20056;-90
2023/10/04 06:57:56;;;;;;;12.77;3.45;;;;;;;;;;5010214;28;20041;-89
2023/10/04 07:03:17;;;;;;;;;;;13.70;99.90;;;;;;5030046;28;20145;-89
2023/10/04 07:05:44;;;;;;;17.75;4.53;;;;;;;;;;5009723;28;20137;-88
2023/10/04 07:08:16;;;;;;;15.32;3.78;;;13.70;99.90;;;;;;5028053;28;20053;-90
2023/10/04 07:10:45;;;;;;;17.10;3.83;;;;;;;;;;5012094;28;20087;-89
2023/10/04 07:13:11;;;;;;;11.77;3.42;;;;;;;;;;5032591;28;20040;-89
2023/10/04 07:15:41;;;;;;;17.00;3.90;;;;;;;;;;5033741;28;20563;-90
2023/10/04 07:18:12;;;;;;;11.02;3.03;;;13.90;99.90;;;;;;5015634;28;20037;-90
2023/10/04 07:20:39;;;;;;;9.90;3.10;;;;;;;;;;5018068;28;20041;-90
2023/10/04 07:23:07;;;;;;;14.90;3.03;;;;;;;;;;4992474;28;20037;-89
2023/10/04 07:25:37;;;;;;;11.32;3.83;;;13.80;99.90;;;;;;5020549;28;20503;-91
2023/10/04 07:28:05;;;;;;;14.85;3.45;;;14.00;99.90;;;;;;5039975;28;20053;-89
2023/10/04 07:30:37;;;;;;;11.70;3.33;;;;;;;;;;5029513;28;20045;-90
2023/10/04 07:33:04;;;;;;;11.85;2.85;;;;;;;;;;5008757;28;20105;-90
2023/10/04 07:35:31;;;;;;;11.77;3.72;;;;;;;;;;5019863;28;20049;-90
2023/10/04 07:38:04;;;;;;;13.32;3.22;;;;;;;;;;5006285;28;20102;-90
2023/10/04 07:40:39;;;;;;;14.45;3.42;;;;;;;;;;5005841;28;20152;-89
2023/10/04 07:43:08;;;;;;;18.85;3.50;;;;;;;;;;5009499;28;20049;-90
2023/10/04 07:45:34;;;;;;;10.95;2.90;;;;;;;;;;5028167;28;20103;-89
2023/10/04 07:48:00;;;;;;;12.07;3.15;;;;;;;;;;5010971;28;20048;-91
2023/10/04 07:50:29;;;;;;;11.13;3.35;;;;;;;;;;5029556;28;20052;-90
2023/10/04 07:52:56;;;;;;;14.23;3.45;;;;;;;;;;5008721;28;20146;-91
2023/10/04 07:55:25;;;;;;;12.05;3.20;;;;;;;;;;5014025;28;20045;-89
2023/10/04 07:58:09;;;;;;;13.18;3.00;;;;;;;;;;5009325;28;20464;-90
2023/10/04 08:00:41;;;;;;;10.77;3.30;;;;;;;;;;5020842;28;20111;-90
2023/10/04 08:03:08;;;;;;;16.30;3.60;;;;;;;;;;5004175;28;20045;-89
2023/10/04 08:05:39;;;;;;;13.35;3.20;;;;;;;;;;5014955;28;20420;-89
2023/10/04 08:08:08;;;;;;;13.52;3.95;;;;;;;;;;5014132;28;20037;-90
2023/10/04 08:10:35;;;;;;;10.90;3.28;;;;;;;;;;5019864;28;20048;-89
2023/10/04 08:13:01;;;;;;;14.43;3.95;;;;;;;;;;5031537;28;20133;-90
2023/10/04 08:15:28;;;;;;;13.45;3.25;;;;;;;;;;5005569;28;20045;-91
2023/10/04 08:17:55;;;;;;;15.57;3.65;;;;;;;;;;5038685;28;20040;-91
2023/10/04 08:20:23;;;;;;;17.40;4.18;;;;;;;;;;5010988;28;20048;-90
2023/10/04 08:22:49;;;;;;;9.20;2.55;;;;;;;;;;5028077;28;20124;-89
2023/10/04 08:25:17;;;;;;;9.18;2.97;;;16.20;99.90;;;;;;5009069;28;20059;-89
2023/10/04 08:27:43;;;;;;;12.70;2.53;;;;;;;;;;5010588;28;20057;-90
2023/10/04 08:30:11;;;;;;;9.20;3.15;;;16.60;99.90;;;;;;5024741;28;20112;-90
2023/10/04 08:32:55;;;;;;;15.30;3.63;;;16.80;99.90;;;;;;5027377;28;20120;-90
2023/10/04 08:35:29;;;;;;;11.88;3.22;;;;;;;;;;5022156;28;20045;-90
2023/10/04 08:37:59;;;;;;;11.93;3.85;;;17.10;99.90;;;;;;5021365;28;20566;-91
2023/10/04 08:40:28;;;;;;;13.93;3.58;;;17.40;99.90;;;;;;5008265;28;20344;-90
2023/10/04 08:42:55;;;;;;;12.10;3.60;;;17.60;99.90;;;;;;5028262;28;20041;-90
2023/10/04 08:45:22;;;;;;;10.60;2.85;;;17.80;99.90;;;;;;5027156;28;20056;-90
2023/10/04 08:47:57;;;;;;;12.07;3.40;;;18.30;99.90;;;;;;5005831;28;20044;-90
2023/10/04 08:50:38;;;;;;;8.77;2.95;;;17.90;99.90;;;;;;5016631;28;20045;-88
2023/10/04 08:53:42;;;;;;;7.70;2.72;;;17.80;99.90;;;;;;5028066;28;20420;-90
2023/10/04 08:56:16;;;;;;;8.20;2.35;;;17.80;99.90;;;;;;4989802;28;20456;-89
2023/10/04 08:58:43;;;;;;;12.65;2.83;;;17.60;99.90;;;;;;5016357;28;20111;-88
2023/10/04 09:01:13;;;;;;;13.30;3.60;;;17.70;99.90;;;;;;5031745;28;20504;-88
2023/10/04 09:03:43;;;;;;;11.73;2.65;;;17.20;99.90;;;;;;5025539;28;20079;-89
2023/10/04 09:06:10;;;;;;;12.70;2.50;;;17.30;99.90;;;;;;5007741;28;20370;-89
2023/10/04 09:08:40;;;;;;;11.98;2.70;;;17.00;99.90;;;;;;5033402;28;20041;-90
2023/10/04 09:11:12;;;;;;;11.38;3.33;;;17.00;99.90;;;;;;5017787;28;20059;-89
2023/10/04 09:13:47;;;;;;;10.38;3.05;;;17.60;99.90;;;;;;5031917;28;20095;-90
2023/10/04 09:16:17;;;;;;;10.00;2.80;;;17.80;99.90;;;;;;5022985;28;20036;-89
2023/10/04 09:18:44;;;;;;;14.07;3.25;;;;;;;;;;5013195;28;20129;-90
2023/10/04 09:21:16;;;;;;;10.60;3.00;;;17.80;99.90;;;;;;5009974;28;20412;-90
2023/10/04 09:23:43;;;;;;;11.05;2.63;;;;;;;;;;5034687;28;20041;-92
2023/10/04 09:26:19;;;;;;;9.93;3.47;;;18.20;99.90;;;;;;5017144;28;20060;-90
2023/10/04 09:28:46;;;;;;;13.30;3.10;;;18.20;99.90;;;;;;5015729;28;20516;-90
2023/10/04 09:31:12;;;;;;;19.23;3.72;;;18.10;99.90;;;;;;5018750;28;20428;-90
2023/10/04 09:33:38;;;;;;;10.35;3.35;;;18.10;99.90;;;;;;5019859;28;20124;-89
2023/10/04 09:36:06;;;;;;;12.50;3.50;;;;;;;;;;5028878;28;20037;-90
2023/10/04 09:38:35;;;;;;;10.13;2.85;;;;;;;;;;5024877;28;20041;-90
2023/10/04 09:41:15;;;;;;;16.83;3.78;;;19.20;99.90;;;;;;5027541;28;20041;-89
2023/10/04 09:43:41;;;;;;;15.40;3.30;;;;;;;;;;5034901;28;20359;-90
2023/10/04 09:46:12;;;;;;;13.75;3.15;;;19.00;99.90;;;;;;5029113;28;20041;-89
2023/10/04 09:48:41;;;;;;;8.70;2.83;;;19.40;99.90;;;;;;5022419;28;20508;-89
2023/10/04 09:51:11;;;;;;;11.50;3.88;;;;;;;;;;5020480;28;20065;-89
2023/10/04 09:53:41;;;;;;;6.43;2.40;;;;;;;;;;5014250;28;20045;-89
2023/10/04 09:56:11;;;;;;;12.43;3.45;;;21.10;99.90;;;;;;5023425;28;20044;-91
2023/10/04 09:58:48;;;;;;;14.30;4.55;;;21.20;99.90;;;;;;5029298;28;20034;-89
2023/10/04 10:01:15;;;;;;;14.27;2.83;;;21.00;99.90;;;;;;5014663;28;20401;-88
2023/10/04 10:03:50;;;;;;;13.13;3.13;;;20.60;99.90;;;;;;5007129;28;20045;-90
2023/10/04 10:06:26;;;;;;;9.82;3.17;;;20.40;99.90;;;;;;5004213;28;20570;-90
2023/10/04 10:08:57;;;;;;;13.32;3.28;;;20.10;99.90;;;;;;5025893;28;20080;-90
2023/10/04 10:11:23;;;;;;;9.55;3.25;;;;;;;;;;5025465;28;20491;-89
2023/10/04 10:13:50;;;;;;;13.77;3.80;;;;;;;;;;5014065;28;20044;-90
2023/10/04 10:16:16;;;;;;;9.80;3.00;;;;;;;;;;5004926;28;20042;-89
2023/10/04 10:18:49;;;;;;;14.85;3.75;;;18.70;99.90;;;;;;5012094;28;20526;-89
2023/10/04 10:22:11;;;;;;;15.30;3.58;;;18.30;99.90;;;;;;5008686;28;20077;-89
2023/10/04 10:24:55;;;;;;;12.65;3.20;;;18.10;99.90;;;;;;5005183;28;20840;-87
2023/10/04 10:27:23;;;;;;;13.02;3.08;;;18.00;99.90;;;;;;4992006;28;20110;-89
2023/10/04 10:29:49;;;;;;;20.73;4.13;;;;;;;;;;4976220;28;20756;-88
2023/10/04 10:32:17;;;;;;;8.93;3.17;;;17.90;99.90;;;;;;4992320;28;20049;-90
2023/10/04 10:34:44;;;;;;;8.20;4.03;;;;;;;;;;4992152;28;20045;-88
2023/10/04 10:37:19;;;;;;;10.60;3.42;;;17.40;99.90;;;;;;4991811;28;20057;-88
2023/10/04 10:39:56;;;;;;;10.60;3.45;;;17.40;99.90;;;;;;5008378;28;20601;-88
2023/10/04 10:42:23;;;;;;;12.02;3.33;;;;;;;;;;4992157;28;20062;-88
2023/10/04 10:45:31;;;;;;;12.20;3.65;;;17.50;99.90;;;;;;4991532;28;20042;-88
2023/10/04 10:48:16;;;;;;;12.90;4.10;;;17.20;99.90;;;;;;4976196;28;20417;-88
2023/10/04 10:50:43;;;;;;;13.25;3.50;;;;;;;;;;5007387;28;20046;-89
2023/10/04 10:57:28;;;;;;;13.93;3.53;;;16.80;99.90;;;;;;5009536;28;20054;-88
2023/10/04 11:00:26;;;;;;;8.55;2.97;;;17.00;99.90;;;;;;4991364;28;20486;-88
2023/10/04 11:03:24;;;;;;;16.73;4.18;;;17.00;99.90;;;;;;4985285;28;20046;-88
2023/10/04 11:05:50;;;;;;;11.35;3.65;;;;;;;;;;4995313;28;20038;-88
2023/10/04 11:08:22;;;;;;;11.48;3.47;;;16.60;99.90;;;;;;5005641;28;20053;-89
2023/10/04 11:10:48;;;;;;;11.75;3.00;;;;;;;;;;4991766;28;20042;-88
2023/10/04 11:13:17;;;;;;;12.65;3.75;;;16.70;99.90;;;;;;4991123;28;20112;-88
2023/10/04 11:16:09;;;;;;;13.07;3.17;;;16.70;99.90;;;;;;5009986;28;20696;-89
2023/10/04 11:18:39;;;;;;;10.82;3.17;;;;;;;;;;5008568;28;20124;-88
2023/10/04 11:21:06;;;;;;;9.70;2.75;;;;;;;;;;5024947;28;20045;-87
2023/10/04 11:23:34;;;;;;;8.95;2.90;;;16.80;99.90;;;;;;4996671;28;20797;-89
2023/10/04 11:26:00;;;;;;;11.60;3.58;;;;;;;;;;5028710;28;20076;-88
2023/10/04 11:31:37;;;;;;;14.40;3.83;;;;;;;;;;5007488;28;20048;-88
2023/10/04 11:34:04;;;;;;;14.60;4.05;;;16.80;99.90;;;;;;5011687;28;20044;-88
2023/10/04 11:36:36;;;;;;;11.80;3.50;;;16.90;99.90;;;;;;5012472;28;20485;-88
2023/10/04 11:39:35;;;;;;;10.02;3.47;;;16.90;99.90;;;;;;5012252;28;20041;-88
2023/10/04 11:42:08;;;;;;;12.45;3.30;;;16.70;99.90;;;;;;5027920;28;20041;-88
2023/10/04 11:44:35;;;;;;;10.10;4.45;;;16.70;99.90;;;;;;5011744;28;20072;-88
2023/10/04 11:47:08;;;;;;;14.07;3.33;;;16.80;99.90;;;;;;5011376;28;20041;-87
2023/10/04 11:49:53;;;;;;;8.50;3.20;;;16.60;99.90;;;;;;4994603;28;20045;-88
2023/10/04 11:52:23;;;;;;;9.65;3.35;;;;;;;;;;4993910;28;20111;-88
2023/10/04 11:55:08;;;;;;;9.38;2.83;;;16.80;99.90;;;;;;4991210;28;20103;-89
2023/10/04 11:57:45;;;;;;;12.68;2.85;;;16.60;99.90;;;;;;4959018;28;20085;-88
2023/10/04 12:00:18;;;;;;;10.88;3.05;;;16.90;99.90;;;;;;4974400;28;20046;-88
2023/10/04 12:02:49;;;;;;;13.98;3.60;;;;;;;;;;4974434;28;20042;-87
2023/10/04 12:05:20;;;;;;;9.80;3.05;;;;;;;;;;4990591;28;20060;-88
2023/10/04 12:08:00;;;;;;;14.07;3.85;;;16.70;99.90;;;;;;5005916;28;20141;-88
2023/10/04 12:10:30;;;;;;;16.27;3.20;;;;;;;;;;4990924;28;20053;-88
2023/10/04 12:12:57;;;;;;;10.38;2.50;;;;;;;;;;4989911;28;20042;-88
2023/10/04 12:15:26;;;;;;;7.47;3.00;;;;;;;;;;4990426;28;20050;-88
2023/10/04 12:17:52;;;;;;;9.52;2.80;;;;;;;;;;4989962;28;20146;-87
2023/10/04 12:20:20;;;;;;;10.35;2.95;;;16.60;99.90;;;;;;4974092;28;20053;-88
2023/10/04 12:22:53;;;;;;;13.30;3.08;;;;;;;;;;5007963;28;20077;-88
2023/10/04 12:25:21;;;;;;;14.48;3.00;;;;;;;;;;4983946;28;20061;-89
2023/10/04 12:27:47;;;;;;;9.55;2.40;;;;;;;;;;5014717;28;20057;-88
2023/10/04 12:30:17;;;;;;;7.05;2.00;;;;;;;;;;5015332;28;20144;-88
2023/10/04 12:32:43;;;;;;;12.73;2.60;;;;;;;;;;5015237;28;20053;-88
2023/10/04 12:35:13;;;;;;;11.40;2.63;;;;;;;;;;5014603;28;20050;-88
2023/10/04 12:37:41;;;;;;;10.25;2.40;;;;;;;;;;5014721;28;20073;-88
2023/10/04 12:40:39;;;;;;;11.45;3.33;;;16.70;99.90;;;;;;4998164;28;20046;-88
2023/10/04 12:43:41;;;;;;;10.38;2.60;;;16.60;99.90;;;;;;5013182;28;20092;-88
2023/10/04 12:46:07;;;;;;;11.48;2.60;;;;;;;;;;5014424;28;20084;-87
2023/10/04 12:48:36;;;;;;;15.15;2.65;;;;;;;;;;5015111;28;20056;-88
2023/10/04 12:51:03;;;;;;;11.20;3.05;;;;;;;;;;5014378;28;20103;-88
2023/10/04 12:53:30;;;;;;;10.13;2.38;;;;;;;;;;5030215;28;20497;-88
2023/10/04 12:55:58;;;;;;;11.45;2.17;;;16.80;99.90;;;;;;5014081;28;20042;-88
2023/10/04 12:58:28;;;;;;;12.05;2.65;;;17.00;99.90;;;;;;5013758;28;20128;-88
2023/10/04 13:00:57;;;;;;;11.90;2.55;;;;;;;;;;5014667;28;20037;-87
2023/10/04 13:03:24;;;;;;;10.63;2.40;;;;;;;;;;5014592;28;20052;-88
2023/10/04 13:05:50;;;;;;;6.38;2.50;;;;;;;;;;5014061;28;20132;-88
2023/10/04 13:08:20;;;;;;;9.25;2.78;;;;;;;;;;5014286;28;20045;-89
2023/10/04 13:10:49;;;;;;;10.30;3.30;;;17.10;99.90;;;;;;5013747;28;20041;-88
2023/10/04 13:13:15;;;;;;;8.45;2.70;;;;;;;;;;5013747;28;20048;-89
2023/10/04 13:15:42;;;;;;;10.35;2.60;;;;;;;;;;5014194;28;20049;-88
2023/10/04 13:18:13;;;;;;;10.90;2.28;;;16.90;99.90;;;;;;5014076;28;20560;-88
2023/10/04 13:20:39;;;;;;;9.60;1.90;;;;;;;;;;5013668;28;20046;-89
2023/10/04 13:23:06;;;;;;;10.50;2.17;;;;;;;;;;5013464;28;20492;-88
2023/10/04 13:25:36;;;;;;;6.93;2.70;;;16.70;99.90;;;;;;5013677;28;20527;-87
2023/10/04 13:28:02;;;;;;;8.90;2.75;;;;;;;;;;5013359;28;20067;-87
2023/10/04 13:30:28;;;;;;;7.22;1.92;;;;;;;;;;5013703;28;20049;-88
2023/10/04 13:32:56;;;;;;;11.15;2.47;;;;;;;;;;5013524;28;20052;-88
2023/10/04 13:35:30;;;;;;;9.30;2.78;;;16.90;99.90;;;;;;5012249;28;20046;-88
2023/10/04 13:37:58;;;;;;;11.47;2.87;;;16.80;99.90;;;;;;5012835;28;20033;-88
2023/10/04 13:40:24;;;;;;;12.57;2.55;;;;;;;;;;5029475;28;20069;-88
2023/10/04 13:42:54;;;;;;;8.77;2.17;;;16.70;99.90;;;;;;5013483;28;20125;-88
2023/10/04 13:45:27;;;;;;;12.13;2.63;;;16.60;99.90;;;;;;5013123;28;20049;-90
2023/10/04 13:47:58;;;;;;;10.02;3.05;;;;;;;;;;5013129;28;20049;-88
2023/10/04 13:50:26;;;;;;;14.10;2.50;;;;;;;;;;5012611;28;20053;-88
2023/10/04 13:52:52;;;;;;;9.68;2.70;;;;;;;;;;5012427;28;20184;-88
2023/10/04 13:55:23;;;;;;;13.13;2.75;;;;;;;;;;5009784;28;20041;-88
2023/10/04 13:57:54;;;;;;;9.35;2.33;;;;;;;;;;5026736;28;20416;-88
2023/10/04 14:00:27;;;;;;;7.68;2.40;;;;;;;;;;5012945;28;20041;-88
2023/10/04 14:02:55;;;;;;;12.50;3.00;;;16.70;99.90;;;;;;5013084;28;20041;-88
2023/10/04 14:05:29;;;;;;;11.25;2.60;;;;;;;;;;5012839;28;20523;-89
2023/10/04 14:08:08;;;;;;;11.45;2.53;;;16.70;99.90;;;;;;5012724;28;20051;-88
2023/10/04 14:10:54;;;;;;;11.35;2.92;;;;;;;;;;5013856;28;20707;-88
2023/10/04 14:13:23;;;;;;;10.57;2.55;;;16.60;99.90;;;;;;5012518;28;20053;-88
2023/10/04 14:15:55;;;;;;;6.13;2.10;;;;;;;;;;5028461;28;20156;-88
2023/10/04 14:18:23;;;;;;;8.55;2.50;;;16.60;99.90;;;;;;5012740;28;20045;-88
2023/10/04 14:20:49;;;;;;;5.13;1.90;;;;;;;;;;5012486;28;20048;-88